Airfield :
LOGIN :

Register | Disclaimer

   EN    FR    IT 

 










Legend :    VFR   Marginal VFR   IFR   Intensive IFR   Very Intensive IFR
Visi :
Ceiling :
>= 8 km
>= 3000ft
5 to 8 km
1000 to 3000 ft
1500m to 5 km
500 to 1000 ft
800 to 1500m
200 to 500 ft
< 800m
< 200 ft
Symbols :   Thunderstorms  Fog  Heavy snow  Heavy precipitations  Wind > 20 kt
SIGMETs :     Misc.  Thunderstorms  Icing  Turbulence  Mountain Waves  Volcanic Ashes







- Airport Elevation : 510 ft


LJCE - Cerklje

CURRENT METAR :
  • 250930Z VRB02KT 9999 FEW010 SCT017 BKN060 18/13 Q1020 RMK BLU

EXPIRED METARs :
  • 250900Z 00000KT 9999 -RA FEW010 SCT017 BKN060 17/13 Q1020 RMK BLU
  • 250830Z VRB01KT 9999 -RA SCT010 OVC060 17/13 Q1020 RMK BLU
  • 250800Z 00000KT 9999 -RA SCT010 OVC060 16/13 Q1020 RMK BLU
  • 250730Z VRB01KT 9999 -RA FEW005 OVC065 16/13 Q1020 RMK BLU
  • 250700Z 00000KT 9999 -RA FEW005 OVC065 15/13 Q1019 RMK BLU
  • 250630Z VRB01KT 9999 -RA FEW005 OVC070 15/13 Q1019 RMK BLU

TAF TAF LJCE
Valid from the 25 at 09:00 until the 25 at 18:00 UTC


250800Z 2509/2518 07004KT 9999 -RA FEW003 OVC065
BECMG 2510/2513 NSW
PROB40
TEMPO 2513/2517 SHRA SCT030TCU BKN040
No reported NOTAMs for that airfield.



MET'MAP, your aeronautical weather chart ! - Copyright ORBIFLY December 2007 - Disclaimer

ORBIFLY MET'MAP TEAM :

Programming & Development : Alexandra Zaïnal
Concept & Development : Baudouin d'Aumeries
Co-Development & Prog : Marc-Olivier Méhu
Technical & hardware support : Manuel Goepfert

Contact : metmap@orbifly.com




SOURCES & CREDITS :

   NOAA